sensor_id;sensor_type;location;lat;lon;timestamp;P1;durP1;ratioP1;P2;durP2;ratioP2
42084;SDS011;27746;52.228;20.890;2024-03-25T00:01:56;11.32;;;6.05;;
42084;SDS011;27746;52.228;20.890;2024-03-25T00:04:23;13.65;;;6.43;;
42084;SDS011;27746;52.228;20.890;2024-03-25T00:06:49;9.85;;;6.03;;
42084;SDS011;27746;52.228;20.890;2024-03-25T00:09:16;12.90;;;6.38;;
42084;SDS011;27746;52.228;20.890;2024-03-25T00:11:42;10.68;;;6.18;;
42084;SDS011;27746;52.228;20.890;2024-03-25T00:14:09;10.88;;;6.57;;
42084;SDS011;27746;52.228;20.890;2024-03-25T00:16:36;12.48;;;6.63;;
42084;SDS011;27746;52.228;20.890;2024-03-25T00:19:04;11.18;;;5.82;;
42084;SDS011;27746;52.228;20.890;2024-03-25T00:21:29;12.65;;;7.57;;
42084;SDS011;27746;52.228;20.890;2024-03-25T00:23:56;12.55;;;6.38;;
42084;SDS011;27746;52.228;20.890;2024-03-25T00:26:25;12.63;;;7.05;;
42084;SDS011;27746;52.228;20.890;2024-03-25T00:28:52;12.70;;;7.80;;
42084;SDS011;27746;52.228;20.890;2024-03-25T00:31:18;15.82;;;8.25;;
42084;SDS011;27746;52.228;20.890;2024-03-25T00:33:47;16.98;;;9.25;;
42084;SDS011;27746;52.228;20.890;2024-03-25T00:36:13;13.57;;;8.00;;
42084;SDS011;27746;52.228;20.890;2024-03-25T00:38:40;18.63;;;7.82;;
42084;SDS011;27746;52.228;20.890;2024-03-25T00:41:06;14.25;;;8.43;;
42084;SDS011;27746;52.228;20.890;2024-03-25T00:43:33;17.02;;;8.80;;
42084;SDS011;27746;52.228;20.890;2024-03-25T00:45:58;13.32;;;8.10;;
42084;SDS011;27746;52.228;20.890;2024-03-25T00:48:25;15.23;;;8.38;;
42084;SDS011;27746;52.228;20.890;2024-03-25T00:50:53;12.10;;;7.43;;
42084;SDS011;27746;52.228;20.890;2024-03-25T00:53:20;15.52;;;8.52;;
42084;SDS011;27746;52.228;20.890;2024-03-25T00:55:47;18.30;;;8.73;;
42084;SDS011;27746;52.228;20.890;2024-03-25T00:58:14;14.93;;;8.77;;
42084;SDS011;27746;52.228;20.890;2024-03-25T01:00:40;17.23;;;9.40;;
42084;SDS011;27746;52.228;20.890;2024-03-25T01:03:07;17.75;;;8.68;;
42084;SDS011;27746;52.228;20.890;2024-03-25T01:05:33;15.18;;;8.95;;
42084;SDS011;27746;52.228;20.890;2024-03-25T01:08:01;16.45;;;8.70;;
42084;SDS011;27746;52.228;20.890;2024-03-25T01:10:28;16.95;;;8.98;;
42084;SDS011;27746;52.228;20.890;2024-03-25T01:12:55;16.70;;;8.93;;
42084;SDS011;27746;52.228;20.890;2024-03-25T01:15:22;18.00;;;9.05;;
42084;SDS011;27746;52.228;20.890;2024-03-25T01:17:49;15.68;;;8.95;;
42084;SDS011;27746;52.228;20.890;2024-03-25T01:20:15;17.23;;;9.52;;
42084;SDS011;27746;52.228;20.890;2024-03-25T01:22:42;17.17;;;9.05;;
42084;SDS011;27746;52.228;20.890;2024-03-25T01:25:09;19.95;;;10.68;;
42084;SDS011;27746;52.228;20.890;2024-03-25T01:27:36;17.75;;;9.90;;
42084;SDS011;27746;52.228;20.890;2024-03-25T01:30:04;20.75;;;11.45;;
42084;SDS011;27746;52.228;20.890;2024-03-25T01:32:32;18.25;;;10.23;;
42084;SDS011;27746;52.228;20.890;2024-03-25T01:34:58;17.98;;;9.80;;
42084;SDS011;27746;52.228;20.890;2024-03-25T01:37:25;17.65;;;10.20;;
42084;SDS011;27746;52.228;20.890;2024-03-25T01:39:52;22.20;;;10.57;;
42084;SDS011;27746;52.228;20.890;2024-03-25T01:42:21;17.00;;;10.45;;
42084;SDS011;27746;52.228;20.890;2024-03-25T01:44:47;20.42;;;10.45;;
42084;SDS011;27746;52.228;20.890;2024-03-25T01:47:14;21.90;;;11.93;;
42084;SDS011;27746;52.228;20.890;2024-03-25T01:49:41;19.83;;;11.18;;
42084;SDS011;27746;52.228;20.890;2024-03-25T01:52:09;21.20;;;11.13;;
42084;SDS011;27746;52.228;20.890;2024-03-25T01:54:35;23.25;;;11.70;;
42084;SDS011;27746;52.228;20.890;2024-03-25T01:57:03;19.35;;;12.25;;
42084;SDS011;27746;52.228;20.890;2024-03-25T01:59:30;23.92;;;12.13;;
42084;SDS011;27746;52.228;20.890;2024-03-25T02:01:59;23.65;;;12.48;;
42084;SDS011;27746;52.228;20.890;2024-03-25T02:04:25;22.10;;;12.05;;
42084;SDS011;27746;52.228;20.890;2024-03-25T02:06:53;22.02;;;12.55;;
42084;SDS011;27746;52.228;20.890;2024-03-25T02:09:20;21.80;;;11.32;;
42084;SDS011;27746;52.228;20.890;2024-03-25T02:11:49;25.75;;;13.50;;
42084;SDS011;27746;52.228;20.890;2024-03-25T02:14:16;20.90;;;12.18;;
42084;SDS011;27746;52.228;20.890;2024-03-25T02:16:45;21.10;;;11.65;;
42084;SDS011;27746;52.228;20.890;2024-03-25T02:19:12;23.20;;;12.80;;
42084;SDS011;27746;52.228;20.890;2024-03-25T02:21:41;19.98;;;11.25;;
42084;SDS011;27746;52.228;20.890;2024-03-25T02:24:09;23.08;;;13.48;;
42084;SDS011;27746;52.228;20.890;2024-03-25T02:26:38;24.23;;;13.48;;
42084;SDS011;27746;52.228;20.890;2024-03-25T02:29:04;21.23;;;12.10;;
42084;SDS011;27746;52.228;20.890;2024-03-25T02:31:31;23.30;;;12.25;;
42084;SDS011;27746;52.228;20.890;2024-03-25T02:33:57;25.10;;;12.10;;
42084;SDS011;27746;52.228;20.890;2024-03-25T02:36:24;24.83;;;12.93;;
42084;SDS011;27746;52.228;20.890;2024-03-25T02:38:50;23.92;;;12.50;;
42084;SDS011;27746;52.228;20.890;2024-03-25T02:41:17;22.73;;;12.75;;
42084;SDS011;27746;52.228;20.890;2024-03-25T02:43:44;25.90;;;13.13;;
42084;SDS011;27746;52.228;20.890;2024-03-25T02:46:11;24.05;;;12.23;;
42084;SDS011;27746;52.228;20.890;2024-03-25T02:48:37;27.70;;;12.90;;
42084;SDS011;27746;52.228;20.890;2024-03-25T02:51:04;22.58;;;12.68;;
42084;SDS011;27746;52.228;20.890;2024-03-25T02:53:31;22.02;;;12.65;;
42084;SDS011;27746;52.228;20.890;2024-03-25T02:55:58;26.92;;;13.57;;
42084;SDS011;27746;52.228;20.890;2024-03-25T02:58:24;21.40;;;12.35;;
42084;SDS011;27746;52.228;20.890;2024-03-25T03:00:52;29.05;;;13.73;;
42084;SDS011;27746;52.228;20.890;2024-03-25T03:03:18;22.27;;;13.00;;
42084;SDS011;27746;52.228;20.890;2024-03-25T03:05:45;21.92;;;12.38;;
42084;SDS011;27746;52.228;20.890;2024-03-25T03:08:11;23.38;;;12.90;;
42084;SDS011;27746;52.228;20.890;2024-03-25T03:10:37;25.50;;;13.38;;
42084;SDS011;27746;52.228;20.890;2024-03-25T03:13:03;25.05;;;13.52;;
42084;SDS011;27746;52.228;20.890;2024-03-25T03:15:31;25.20;;;13.32;;
42084;SDS011;27746;52.228;20.890;2024-03-25T03:17:58;25.52;;;14.18;;
42084;SDS011;27746;52.228;20.890;2024-03-25T03:20:25;24.30;;;12.50;;
42084;SDS011;27746;52.228;20.890;2024-03-25T03:22:51;23.80;;;12.77;;
42084;SDS011;27746;52.228;20.890;2024-03-25T03:25:18;24.90;;;13.90;;
42084;SDS011;27746;52.228;20.890;2024-03-25T03:27:44;28.45;;;13.25;;
42084;SDS011;27746;52.228;20.890;2024-03-25T03:30:11;26.40;;;13.82;;
42084;SDS011;27746;52.228;20.890;2024-03-25T03:32:36;20.00;;;12.35;;
42084;SDS011;27746;52.228;20.890;2024-03-25T03:35:05;26.10;;;13.15;;
42084;SDS011;27746;52.228;20.890;2024-03-25T03:37:32;27.20;;;14.43;;
42084;SDS011;27746;52.228;20.890;2024-03-25T03:39:59;30.20;;;14.13;;
42084;SDS011;27746;52.228;20.890;2024-03-25T03:42:24;21.52;;;13.00;;
42084;SDS011;27746;52.228;20.890;2024-03-25T03:44:51;24.63;;;14.05;;
42084;SDS011;27746;52.228;20.890;2024-03-25T03:47:17;22.70;;;12.32;;
42084;SDS011;27746;52.228;20.890;2024-03-25T03:49:44;28.33;;;13.82;;
42084;SDS011;27746;52.228;20.890;2024-03-25T03:52:12;26.75;;;14.73;;
42084;SDS011;27746;52.228;20.890;2024-03-25T03:54:39;28.52;;;15.25;;
42084;SDS011;27746;52.228;20.890;2024-03-25T03:57:06;24.83;;;14.43;;
42084;SDS011;27746;52.228;20.890;2024-03-25T03:59:33;29.17;;;14.00;;
42084;SDS011;27746;52.228;20.890;2024-03-25T04:01:59;24.70;;;13.65;;
42084;SDS011;27746;52.228;20.890;2024-03-25T04:04:26;25.85;;;14.35;;
42084;SDS011;27746;52.228;20.890;2024-03-25T04:06:52;29.25;;;13.60;;
42084;SDS011;27746;52.228;20.890;2024-03-25T04:09:21;28.88;;;14.77;;
42084;SDS011;27746;52.228;20.890;2024-03-25T04:11:48;27.92;;;14.73;;
42084;SDS011;27746;52.228;20.890;2024-03-25T04:14:15;28.25;;;13.52;;
42084;SDS011;27746;52.228;20.890;2024-03-25T04:16:41;24.65;;;13.40;;
42084;SDS011;27746;52.228;20.890;2024-03-25T04:19:09;28.63;;;14.25;;
42084;SDS011;27746;52.228;20.890;2024-03-25T04:21:34;27.02;;;14.50;;
42084;SDS011;27746;52.228;20.890;2024-03-25T04:24:02;36.08;;;17.55;;
42084;SDS011;27746;52.228;20.890;2024-03-25T04:26:29;27.00;;;14.15;;
42084;SDS011;27746;52.228;20.890;2024-03-25T04:28:56;27.48;;;13.55;;
42084;SDS011;27746;52.228;20.890;2024-03-25T04:31:22;25.48;;;12.82;;
42084;SDS011;27746;52.228;20.890;2024-03-25T04:33:50;25.85;;;13.88;;
42084;SDS011;27746;52.228;20.890;2024-03-25T04:36:16;22.90;;;13.15;;
42084;SDS011;27746;52.228;20.890;2024-03-25T04:38:43;23.85;;;14.43;;
42084;SDS011;27746;52.228;20.890;2024-03-25T04:41:09;24.48;;;13.70;;
42084;SDS011;27746;52.228;20.890;2024-03-25T04:43:37;25.42;;;14.20;;
42084;SDS011;27746;52.228;20.890;2024-03-25T04:46:03;25.92;;;13.57;;
42084;SDS011;27746;52.228;20.890;2024-03-25T04:48:29;27.58;;;14.77;;
42084;SDS011;27746;52.228;20.890;2024-03-25T04:50:55;29.55;;;15.77;;
42084;SDS011;27746;52.228;20.890;2024-03-25T04:53:22;26.95;;;14.57;;
42084;SDS011;27746;52.228;20.890;2024-03-25T04:55:48;25.52;;;13.90;;
42084;SDS011;27746;52.228;20.890;2024-03-25T04:58:14;26.13;;;14.25;;
42084;SDS011;27746;52.228;20.890;2024-03-25T05:00:42;29.15;;;13.80;;
42084;SDS011;27746;52.228;20.890;2024-03-25T05:03:08;26.45;;;14.13;;
42084;SDS011;27746;52.228;20.890;2024-03-25T05:05:34;24.73;;;14.45;;
42084;SDS011;27746;52.228;20.890;2024-03-25T05:08:00;27.75;;;14.18;;
42084;SDS011;27746;52.228;20.890;2024-03-25T05:10:33;27.92;;;13.90;;
42084;SDS011;27746;52.228;20.890;2024-03-25T05:12:59;25.70;;;13.43;;
42084;SDS011;27746;52.228;20.890;2024-03-25T05:15:25;24.83;;;14.02;;
42084;SDS011;27746;52.228;20.890;2024-03-25T05:17:52;25.88;;;15.07;;
42084;SDS011;27746;52.228;20.890;2024-03-25T05:20:19;23.00;;;13.70;;
42084;SDS011;27746;52.228;20.890;2024-03-25T05:22:45;24.80;;;12.90;;
42084;SDS011;27746;52.228;20.890;2024-03-25T05:25:12;24.73;;;14.02;;
42084;SDS011;27746;52.228;20.890;2024-03-25T05:27:38;25.95;;;13.05;;
42084;SDS011;27746;52.228;20.890;2024-03-25T05:30:04;25.33;;;13.05;;
42084;SDS011;27746;52.228;20.890;2024-03-25T05:32:31;22.65;;;12.50;;
42084;SDS011;27746;52.228;20.890;2024-03-25T05:34:58;23.02;;;12.90;;
42084;SDS011;27746;52.228;20.890;2024-03-25T05:37:24;20.95;;;11.68;;
42084;SDS011;27746;52.228;20.890;2024-03-25T05:39:51;20.67;;;11.73;;
42084;SDS011;27746;52.228;20.890;2024-03-25T05:42:17;22.40;;;10.65;;
42084;SDS011;27746;52.228;20.890;2024-03-25T05:44:44;25.95;;;12.20;;
42084;SDS011;27746;52.228;20.890;2024-03-25T05:47:14;25.23;;;10.95;;
42084;SDS011;27746;52.228;20.890;2024-03-25T05:49:40;24.08;;;11.55;;
42084;SDS011;27746;52.228;20.890;2024-03-25T05:52:08;21.33;;;12.30;;
42084;SDS011;27746;52.228;20.890;2024-03-25T05:54:34;19.67;;;10.00;;
42084;SDS011;27746;52.228;20.890;2024-03-25T05:57:00;19.17;;;10.70;;
42084;SDS011;27746;52.228;20.890;2024-03-25T05:59:27;20.83;;;11.02;;
42084;SDS011;27746;52.228;20.890;2024-03-25T06:01:53;18.30;;;10.25;;
42084;SDS011;27746;52.228;20.890;2024-03-25T06:04:19;18.98;;;10.73;;
42084;SDS011;27746;52.228;20.890;2024-03-25T06:06:45;17.13;;;9.43;;
42084;SDS011;27746;52.228;20.890;2024-03-25T06:09:13;16.92;;;10.10;;
42084;SDS011;27746;52.228;20.890;2024-03-25T06:11:39;17.83;;;9.80;;
42084;SDS011;27746;52.228;20.890;2024-03-25T06:14:05;19.20;;;9.80;;
42084;SDS011;27746;52.228;20.890;2024-03-25T06:16:31;18.90;;;9.85;;
42084;SDS011;27746;52.228;20.890;2024-03-25T06:18:58;19.30;;;10.05;;
42084;SDS011;27746;52.228;20.890;2024-03-25T06:21:24;17.15;;;9.55;;
42084;SDS011;27746;52.228;20.890;2024-03-25T06:23:50;15.48;;;9.30;;
42084;SDS011;27746;52.228;20.890;2024-03-25T06:26:18;18.35;;;9.82;;
42084;SDS011;27746;52.228;20.890;2024-03-25T06:28:44;18.05;;;10.88;;
42084;SDS011;27746;52.228;20.890;2024-03-25T06:31:10;19.13;;;9.85;;
42084;SDS011;27746;52.228;20.890;2024-03-25T06:33:54;14.77;;;8.10;;
42084;SDS011;27746;52.228;20.890;2024-03-25T06:36:39;17.63;;;8.90;;
42084;SDS011;27746;52.228;20.890;2024-03-25T06:39:05;15.05;;;8.65;;
42084;SDS011;27746;52.228;20.890;2024-03-25T06:41:33;14.70;;;8.52;;
42084;SDS011;27746;52.228;20.890;2024-03-25T06:43:59;17.38;;;9.57;;
42084;SDS011;27746;52.228;20.890;2024-03-25T06:46:25;16.48;;;9.05;;
42084;SDS011;27746;52.228;20.890;2024-03-25T06:48:52;19.63;;;9.98;;
42084;SDS011;27746;52.228;20.890;2024-03-25T06:51:18;17.17;;;9.23;;
42084;SDS011;27746;52.228;20.890;2024-03-25T06:53:44;15.45;;;8.93;;
42084;SDS011;27746;52.228;20.890;2024-03-25T06:56:10;16.30;;;9.25;;
42084;SDS011;27746;52.228;20.890;2024-03-25T06:58:38;18.10;;;9.48;;
42084;SDS011;27746;52.228;20.890;2024-03-25T07:01:04;15.60;;;9.02;;
42084;SDS011;27746;52.228;20.890;2024-03-25T07:03:31;16.75;;;8.10;;
42084;SDS011;27746;52.228;20.890;2024-03-25T07:05:57;14.63;;;8.52;;
42084;SDS011;27746;52.228;20.890;2024-03-25T07:08:24;14.05;;;8.40;;
42084;SDS011;27746;52.228;20.890;2024-03-25T07:10:51;16.20;;;9.27;;
42084;SDS011;27746;52.228;20.890;2024-03-25T07:13:17;14.10;;;7.82;;
42084;SDS011;27746;52.228;20.890;2024-03-25T07:15:45;17.30;;;9.18;;
42084;SDS011;27746;52.228;20.890;2024-03-25T07:18:11;16.85;;;9.00;;
42084;SDS011;27746;52.228;20.890;2024-03-25T07:20:38;17.35;;;8.60;;
42084;SDS011;27746;52.228;20.890;2024-03-25T07:23:04;11.90;;;7.38;;
42084;SDS011;27746;52.228;20.890;2024-03-25T07:25:30;14.52;;;8.30;;
42084;SDS011;27746;52.228;20.890;2024-03-25T07:27:56;16.45;;;8.70;;
42084;SDS011;27746;52.228;20.890;2024-03-25T07:30:23;15.32;;;8.07;;
42084;SDS011;27746;52.228;20.890;2024-03-25T07:32:50;13.23;;;8.48;;
42084;SDS011;27746;52.228;20.890;2024-03-25T07:35:17;15.18;;;8.35;;
42084;SDS011;27746;52.228;20.890;2024-03-25T07:37:43;14.63;;;8.40;;
42084;SDS011;27746;52.228;20.890;2024-03-25T07:40:09;14.35;;;9.05;;
42084;SDS011;27746;52.228;20.890;2024-03-25T07:42:35;18.73;;;9.57;;
42084;SDS011;27746;52.228;20.890;2024-03-25T07:45:02;16.35;;;8.60;;
42084;SDS011;27746;52.228;20.890;2024-03-25T07:47:28;13.95;;;8.80;;
42084;SDS011;27746;52.228;20.890;2024-03-25T07:49:56;15.50;;;8.88;;
42084;SDS011;27746;52.228;20.890;2024-03-25T07:52:22;15.18;;;8.20;;
42084;SDS011;27746;52.228;20.890;2024-03-25T07:54:48;16.58;;;8.55;;
42084;SDS011;27746;52.228;20.890;2024-03-25T07:57:14;13.73;;;7.70;;
42084;SDS011;27746;52.228;20.890;2024-03-25T07:59:40;13.07;;;7.10;;
42084;SDS011;27746;52.228;20.890;2024-03-25T08:02:07;14.50;;;6.97;;
42084;SDS011;27746;52.228;20.890;2024-03-25T08:04:33;14.38;;;7.80;;
42084;SDS011;27746;52.228;20.890;2024-03-25T08:07:00;10.48;;;5.97;;
42084;SDS011;27746;52.228;20.890;2024-03-25T08:09:27;9.60;;;6.10;;
42084;SDS011;27746;52.228;20.890;2024-03-25T08:11:53;11.50;;;6.40;;
42084;SDS011;27746;52.228;20.890;2024-03-25T08:14:19;12.18;;;7.32;;
42084;SDS011;27746;52.228;20.890;2024-03-25T08:16:45;12.25;;;7.00;;
42084;SDS011;27746;52.228;20.890;2024-03-25T08:19:12;13.45;;;7.53;;
42084;SDS011;27746;52.228;20.890;2024-03-25T08:21:38;13.43;;;6.90;;
42084;SDS011;27746;52.228;20.890;2024-03-25T08:24:06;16.23;;;9.95;;
42084;SDS011;27746;52.228;20.890;2024-03-25T08:26:32;13.85;;;8.40;;
42084;SDS011;27746;52.228;20.890;2024-03-25T08:28:59;12.95;;;7.50;;
42084;SDS011;27746;52.228;20.890;2024-03-25T08:31:25;12.25;;;6.25;;
42084;SDS011;27746;52.228;20.890;2024-03-25T08:33:51;18.08;;;6.88;;
42084;SDS011;27746;52.228;20.890;2024-03-25T08:36:17;10.70;;;6.90;;
42084;SDS011;27746;52.228;20.890;2024-03-25T08:38:45;10.90;;;6.45;;
42084;SDS011;27746;52.228;20.890;2024-03-25T08:41:12;13.80;;;7.13;;
42084;SDS011;27746;52.228;20.890;2024-03-25T08:43:38;12.90;;;6.88;;
42084;SDS011;27746;52.228;20.890;2024-03-25T08:46:05;9.55;;;6.28;;
42084;SDS011;27746;52.228;20.890;2024-03-25T08:48:31;9.43;;;5.70;;
42084;SDS011;27746;52.228;20.890;2024-03-25T08:50:57;12.40;;;6.57;;
42084;SDS011;27746;52.228;20.890;2024-03-25T08:53:23;10.15;;;6.93;;
42084;SDS011;27746;52.228;20.890;2024-03-25T08:55:49;9.90;;;5.75;;
42084;SDS011;27746;52.228;20.890;2024-03-25T08:58:17;10.50;;;6.18;;
42084;SDS011;27746;52.228;20.890;2024-03-25T09:00:43;10.73;;;5.95;;
42084;SDS011;27746;52.228;20.890;2024-03-25T09:03:09;9.77;;;6.18;;
42084;SDS011;27746;52.228;20.890;2024-03-25T09:05:36;13.13;;;5.65;;
42084;SDS011;27746;52.228;20.890;2024-03-25T09:08:03;8.98;;;5.60;;
42084;SDS011;27746;52.228;20.890;2024-03-25T09:10:29;9.15;;;5.25;;
42084;SDS011;27746;52.228;20.890;2024-03-25T09:13:14;10.43;;;5.57;;
42084;SDS011;27746;52.228;20.890;2024-03-25T09:15:41;11.23;;;6.00;;
42084;SDS011;27746;52.228;20.890;2024-03-25T09:18:07;9.73;;;5.45;;
42084;SDS011;27746;52.228;20.890;2024-03-25T09:20:34;10.75;;;6.28;;
42084;SDS011;27746;52.228;20.890;2024-03-25T09:23:00;11.75;;;6.00;;
42084;SDS011;27746;52.228;20.890;2024-03-25T09:25:26;11.52;;;5.95;;
42084;SDS011;27746;52.228;20.890;2024-03-25T09:27:52;12.32;;;5.68;;
42084;SDS011;27746;52.228;20.890;2024-03-25T09:30:19;11.68;;;5.03;;
42084;SDS011;27746;52.228;20.890;2024-03-25T09:32:46;10.85;;;6.20;;
42084;SDS011;27746;52.228;20.890;2024-03-25T09:35:13;10.73;;;6.53;;
42084;SDS011;27746;52.228;20.890;2024-03-25T09:37:39;14.18;;;5.88;;
42084;SDS011;27746;52.228;20.890;2024-03-25T09:40:05;8.73;;;6.38;;
42084;SDS011;27746;52.228;20.890;2024-03-25T09:42:33;11.57;;;6.05;;
42084;SDS011;27746;52.228;20.890;2024-03-25T09:45:00;11.30;;;6.32;;
42084;SDS011;27746;52.228;20.890;2024-03-25T09:47:26;10.18;;;6.13;;
42084;SDS011;27746;52.228;20.890;2024-03-25T09:49:54;10.15;;;4.97;;
42084;SDS011;27746;52.228;20.890;2024-03-25T09:52:21;7.38;;;4.68;;
42084;SDS011;27746;52.228;20.890;2024-03-25T09:54:47;9.55;;;5.20;;
42084;SDS011;27746;52.228;20.890;2024-03-25T09:57:13;9.98;;;5.18;;
42084;SDS011;27746;52.228;20.890;2024-03-25T09:59:40;10.10;;;6.15;;
42084;SDS011;27746;52.228;20.890;2024-03-25T10:02:06;10.68;;;5.78;;
42084;SDS011;27746;52.228;20.890;2024-03-25T10:04:37;9.77;;;5.25;;
42084;SDS011;27746;52.228;20.890;2024-03-25T10:07:06;11.20;;;5.53;;
42084;SDS011;27746;52.228;20.890;2024-03-25T10:09:33;11.50;;;6.35;;
42084;SDS011;27746;52.228;20.890;2024-03-25T10:11:59;13.45;;;5.88;;
42084;SDS011;27746;52.228;20.890;2024-03-25T10:14:25;9.50;;;4.88;;
42084;SDS011;27746;52.228;20.890;2024-03-25T10:16:51;8.50;;;5.05;;
42084;SDS011;27746;52.228;20.890;2024-03-25T10:19:17;10.85;;;5.65;;
42084;SDS011;27746;52.228;20.890;2024-03-25T10:21:44;7.38;;;5.03;;
42084;SDS011;27746;52.228;20.890;2024-03-25T10:24:11;8.38;;;5.18;;
42084;SDS011;27746;52.228;20.890;2024-03-25T10:26:38;8.23;;;4.43;;
42084;SDS011;27746;52.228;20.890;2024-03-25T10:29:04;9.68;;;4.80;;
42084;SDS011;27746;52.228;20.890;2024-03-25T10:31:31;5.97;;;3.60;;
42084;SDS011;27746;52.228;20.890;2024-03-25T10:33:58;6.80;;;3.30;;
42084;SDS011;27746;52.228;20.890;2024-03-25T10:36:24;5.18;;;3.28;;
42084;SDS011;27746;52.228;20.890;2024-03-25T10:38:52;6.28;;;3.08;;
42084;SDS011;27746;52.228;20.890;2024-03-25T10:41:21;5.85;;;2.83;;
42084;SDS011;27746;52.228;20.890;2024-03-25T10:43:48;7.07;;;3.83;;
42084;SDS011;27746;52.228;20.890;2024-03-25T10:46:18;8.65;;;4.35;;
42084;SDS011;27746;52.228;20.890;2024-03-25T10:48:47;6.35;;;3.47;;
42084;SDS011;27746;52.228;20.890;2024-03-25T10:51:14;8.10;;;3.78;;
42084;SDS011;27746;52.228;20.890;2024-03-25T10:53:41;5.72;;;3.50;;
42084;SDS011;27746;52.228;20.890;2024-03-25T10:56:07;5.65;;;3.55;;
42084;SDS011;27746;52.228;20.890;2024-03-25T10:58:35;7.95;;;3.88;;
42084;SDS011;27746;52.228;20.890;2024-03-25T11:01:01;6.00;;;3.58;;
42084;SDS011;27746;52.228;20.890;2024-03-25T11:03:28;5.82;;;3.42;;
42084;SDS011;27746;52.228;20.890;2024-03-25T11:05:55;6.80;;;3.90;;
42084;SDS011;27746;52.228;20.890;2024-03-25T11:08:29;11.00;;;3.90;;
42084;SDS011;27746;52.228;20.890;2024-03-25T11:10:55;7.65;;;3.65;;
42084;SDS011;27746;52.228;20.890;2024-03-25T11:13:21;6.18;;;3.17;;
42084;SDS011;27746;52.228;20.890;2024-03-25T11:15:49;5.65;;;4.32;;
42084;SDS011;27746;52.228;20.890;2024-03-25T11:18:16;6.45;;;3.33;;
42084;SDS011;27746;52.228;20.890;2024-03-25T11:20:42;9.38;;;3.85;;
42084;SDS011;27746;52.228;20.890;2024-03-25T11:23:08;8.15;;;3.92;;
42084;SDS011;27746;52.228;20.890;2024-03-25T11:25:35;6.93;;;3.35;;
42084;SDS011;27746;52.228;20.890;2024-03-25T11:28:01;8.02;;;3.95;;
42084;SDS011;27746;52.228;20.890;2024-03-25T11:30:27;11.68;;;3.88;;
42084;SDS011;27746;52.228;20.890;2024-03-25T11:32:55;9.68;;;3.58;;
42084;SDS011;27746;52.228;20.890;2024-03-25T11:35:21;4.22;;;2.83;;
42084;SDS011;27746;52.228;20.890;2024-03-25T11:37:48;6.88;;;3.50;;
42084;SDS011;27746;52.228;20.890;2024-03-25T11:40:14;4.53;;;2.60;;
42084;SDS011;27746;52.228;20.890;2024-03-25T11:42:40;4.38;;;2.53;;
42084;SDS011;27746;52.228;20.890;2024-03-25T11:45:10;6.03;;;2.78;;
42084;SDS011;27746;52.228;20.890;2024-03-25T11:47:40;6.40;;;2.78;;
42084;SDS011;27746;52.228;20.890;2024-03-25T11:50:09;6.35;;;3.10;;
42084;SDS011;27746;52.228;20.890;2024-03-25T11:52:35;4.30;;;2.80;;
42084;SDS011;27746;52.228;20.890;2024-03-25T11:55:02;6.22;;;3.03;;
42084;SDS011;27746;52.228;20.890;2024-03-25T11:57:29;5.88;;;3.08;;
42084;SDS011;27746;52.228;20.890;2024-03-25T11:59:55;5.90;;;2.63;;
42084;SDS011;27746;52.228;20.890;2024-03-25T12:02:21;6.88;;;3.08;;
42084;SDS011;27746;52.228;20.890;2024-03-25T12:04:48;5.32;;;2.72;;
42084;SDS011;27746;52.228;20.890;2024-03-25T12:07:15;7.70;;;3.10;;
42084;SDS011;27746;52.228;20.890;2024-03-25T12:09:41;17.92;;;3.60;;
42084;SDS011;27746;52.228;20.890;2024-03-25T12:12:41;4.97;;;3.13;;
42084;SDS011;27746;52.228;20.890;2024-03-25T12:15:07;6.30;;;3.50;;
42084;SDS011;27746;52.228;20.890;2024-03-25T12:17:34;8.00;;;3.38;;
42084;SDS011;27746;52.228;20.890;2024-03-25T12:20:04;6.07;;;3.13;;
42084;SDS011;27746;52.228;20.890;2024-03-25T12:22:32;6.82;;;3.67;;
42084;SDS011;27746;52.228;20.890;2024-03-25T12:25:00;6.03;;;3.20;;
42084;SDS011;27746;52.228;20.890;2024-03-25T12:27:28;6.78;;;3.63;;
42084;SDS011;27746;52.228;20.890;2024-03-25T12:29:57;7.60;;;4.10;;
42084;SDS011;27746;52.228;20.890;2024-03-25T12:32:30;7.25;;;3.83;;
42084;SDS011;27746;52.228;20.890;2024-03-25T12:34:57;7.82;;;4.15;;
42084;SDS011;27746;52.228;20.890;2024-03-25T12:37:25;8.90;;;5.45;;
42084;SDS011;27746;52.228;20.890;2024-03-25T12:39:53;10.32;;;6.25;;
42084;SDS011;27746;52.228;20.890;2024-03-25T12:42:19;10.88;;;7.07;;
42084;SDS011;27746;52.228;20.890;2024-03-25T12:44:45;10.13;;;7.00;;
42084;SDS011;27746;52.228;20.890;2024-03-25T12:47:12;13.35;;;7.65;;
42084;SDS011;27746;52.228;20.890;2024-03-25T12:49:38;10.85;;;6.72;;
42084;SDS011;27746;52.228;20.890;2024-03-25T12:52:04;11.77;;;7.30;;
42084;SDS011;27746;52.228;20.890;2024-03-25T12:54:31;10.15;;;6.78;;
42084;SDS011;27746;52.228;20.890;2024-03-25T12:56:59;9.77;;;6.85;;
42084;SDS011;27746;52.228;20.890;2024-03-25T12:59:25;8.15;;;6.45;;
42084;SDS011;27746;52.228;20.890;2024-03-25T13:01:51;7.95;;;5.90;;
42084;SDS011;27746;52.228;20.890;2024-03-25T13:04:17;10.40;;;6.93;;
42084;SDS011;27746;52.228;20.890;2024-03-25T13:06:44;10.45;;;5.72;;
42084;SDS011;27746;52.228;20.890;2024-03-25T13:09:10;11.50;;;5.43;;
42084;SDS011;27746;52.228;20.890;2024-03-25T13:11:36;8.90;;;4.80;;
42084;SDS011;27746;52.228;20.890;2024-03-25T13:14:04;8.05;;;4.40;;
42084;SDS011;27746;52.228;20.890;2024-03-25T13:16:31;7.95;;;4.88;;
42084;SDS011;27746;52.228;20.890;2024-03-25T13:18:57;8.23;;;4.78;;
42084;SDS011;27746;52.228;20.890;2024-03-25T13:21:23;8.65;;;5.30;;
42084;SDS011;27746;52.228;20.890;2024-03-25T13:23:50;10.98;;;4.85;;
42084;SDS011;27746;52.228;20.890;2024-03-25T13:26:16;11.35;;;4.80;;
42084;SDS011;27746;52.228;20.890;2024-03-25T13:28:43;7.28;;;5.00;;
42084;SDS011;27746;52.228;20.890;2024-03-25T13:31:10;8.20;;;4.72;;
42084;SDS011;27746;52.228;20.890;2024-03-25T13:33:37;7.75;;;4.63;;
42084;SDS011;27746;52.228;20.890;2024-03-25T13:36:04;6.30;;;4.50;;
42084;SDS011;27746;52.228;20.890;2024-03-25T13:38:30;8.68;;;3.97;;
42084;SDS011;27746;52.228;20.890;2024-03-25T13:40:56;6.57;;;3.83;;
42084;SDS011;27746;52.228;20.890;2024-03-25T13:43:22;6.78;;;4.30;;
42084;SDS011;27746;52.228;20.890;2024-03-25T13:45:49;6.20;;;4.40;;
42084;SDS011;27746;52.228;20.890;2024-03-25T13:48:16;6.57;;;4.32;;
42084;SDS011;27746;52.228;20.890;2024-03-25T13:50:43;6.75;;;4.35;;
42084;SDS011;27746;52.228;20.890;2024-03-25T13:53:09;6.30;;;4.30;;
42084;SDS011;27746;52.228;20.890;2024-03-25T13:55:35;8.30;;;4.78;;
42084;SDS011;27746;52.228;20.890;2024-03-25T13:58:01;9.55;;;5.03;;
42084;SDS011;27746;52.228;20.890;2024-03-25T14:00:28;6.05;;;4.93;;
42084;SDS011;27746;52.228;20.890;2024-03-25T14:02:54;8.38;;;5.03;;
42084;SDS011;27746;52.228;20.890;2024-03-25T14:05:22;7.45;;;4.80;;
42084;SDS011;27746;52.228;20.890;2024-03-25T14:07:48;7.85;;;4.38;;
42084;SDS011;27746;52.228;20.890;2024-03-25T14:10:14;6.55;;;4.25;;
42084;SDS011;27746;52.228;20.890;2024-03-25T14:12:41;7.05;;;4.20;;
42084;SDS011;27746;52.228;20.890;2024-03-25T14:15:07;7.07;;;4.57;;
42084;SDS011;27746;52.228;20.890;2024-03-25T14:17:34;6.00;;;4.18;;
42084;SDS011;27746;52.228;20.890;2024-03-25T14:20:00;6.65;;;4.13;;